createdAt,value
2018-04-28T00:00:49.539Z,72.99
2018-04-28T00:01:49.454Z,71.94
2018-04-28T00:02:49.359Z,71.66
2018-04-28T00:03:49.301Z,71.56
2018-04-28T00:04:49.181Z,72.03
2018-04-28T00:05:49.079Z,71.31
2018-04-28T00:06:48.990Z,71.21
2018-04-28T00:07:48.902Z,71.50
2018-04-28T00:08:48.840Z,71.59
2018-04-28T00:09:48.715Z,70.64
2018-04-28T00:10:48.624Z,71.84
2018-04-28T00:11:48.531Z,71.75
2018-04-28T00:12:48.441Z,72.80
2018-04-28T00:13:48.380Z,72.03
2018-04-28T00:14:48.257Z,72.13
2018-04-28T00:15:48.162Z,72.51
2018-04-28T00:16:48.070Z,72.23
2018-04-28T00:17:47.983Z,72.71
2018-04-28T00:18:47.919Z,72.89
2018-04-28T00:19:47.800Z,72.03
2018-04-28T00:20:47.703Z,72.32
2018-04-28T00:21:47.615Z,72.07
2018-04-28T00:22:47.523Z,72.26
2018-04-28T00:23:47.461Z,71.59
2018-04-28T00:24:47.337Z,71.78
2018-04-28T00:25:47.244Z,71.98
2018-04-28T00:26:47.152Z,71.59
2018-04-28T00:27:47.061Z,72.17
2018-04-28T00:28:47.002Z,72.17
2018-04-28T00:29:46.877Z,72.26
2018-04-28T00:30:46.787Z,72.26
2018-04-28T00:31:46.697Z,72.17
2018-04-28T00:32:46.604Z,72.64
2018-04-28T00:33:46.541Z,72.45
2018-04-28T00:34:46.417Z,73.03
2018-04-28T00:35:46.327Z,72.71
2018-04-28T00:36:46.233Z,72.71
2018-04-28T00:37:46.143Z,73.60
2018-04-28T00:38:46.080Z,73.94
2018-04-28T00:39:45.960Z,73.56
2018-04-28T00:40:45.870Z,74.04
2018-04-28T00:41:45.775Z,73.94
2018-04-28T00:42:45.685Z,74.32
2018-04-28T00:43:45.595Z,74.52
2018-04-28T00:44:45.532Z,74.80
2018-04-28T00:45:45.407Z,74.99
2018-04-28T00:46:45.321Z,74.90
2018-04-28T00:47:45.224Z,74.61
2018-04-28T00:48:45.137Z,74.04
2018-04-28T00:49:45.074Z,74.13
2018-04-28T00:50:44.949Z,74.42
2018-04-28T00:51:44.854Z,74.42
2018-04-28T00:52:44.767Z,74.61
2018-04-28T00:53:44.674Z,74.13
2018-04-28T00:54:44.582Z,74.80
2018-04-28T00:55:44.519Z,75.18
2018-04-28T00:56:44.404Z,74.23
2018-04-28T00:57:44.310Z,74.13
2018-04-28T00:58:44.315Z,75.22
2018-04-28T00:59:44.122Z,74.74
2018-04-28T01:00:44.061Z,74.08
2018-04-28T01:01:43.941Z,74.17
2018-04-28T01:02:43.850Z,74.46
2018-04-28T01:03:43.759Z,74.37
2018-04-28T01:04:43.664Z,74.27
2018-04-28T01:05:43.698Z,75.28
2018-04-28T01:06:43.480Z,75.95
2018-04-28T01:07:43.391Z,75.66
2018-04-28T01:08:43.296Z,75.28
2018-04-28T01:09:43.207Z,76.62
2018-04-28T01:10:43.144Z,76.42
2018-04-28T01:11:43.021Z,76.23
2018-04-28T01:12:43.024Z,77.28
2018-04-28T01:13:42.839Z,77.19
2018-04-28T01:14:42.749Z,76.46
2018-04-28T01:15:42.689Z,76.65
2018-04-28T01:16:42.561Z,75.89
2018-04-28T01:17:42.485Z,75.03
2018-04-28T01:18:42.382Z,75.79
2018-04-28T01:19:42.381Z,75.89
2018-04-28T01:20:42.227Z,76.27
2018-04-28T01:21:42.105Z,76.65
2018-04-28T01:22:42.014Z,77.03
2018-04-28T01:23:41.918Z,77.32
2018-04-28T01:24:41.829Z,76.90
2018-04-28T01:25:41.766Z,77.51
2018-04-28T01:26:41.742Z,77.70
2018-04-28T01:27:41.553Z,78.14
2018-04-28T01:28:41.461Z,77.89
2018-04-28T01:29:41.367Z,78.52
2018-04-28T01:30:41.281Z,78.33
2018-04-28T01:31:41.216Z,77.47
2018-04-28T01:32:41.092Z,76.94
2018-04-28T01:33:41.103Z,77.51
2018-04-28T01:34:40.912Z,76.84
2018-04-28T01:35:40.817Z,76.46
2018-04-28T01:36:41.713Z,76.94
2018-04-28T01:37:40.642Z,77.23
2018-04-28T01:38:40.567Z,78.23
2018-04-28T01:39:40.451Z,78.91
2018-04-28T01:40:40.455Z,79.48
2018-04-28T01:41:40.303Z,79.96
2018-04-28T01:42:40.177Z,80.68
2018-04-28T01:43:40.086Z,81.54
2018-04-28T01:44:39.991Z,80.96
2018-04-28T01:45:39.903Z,81.63
2018-04-28T01:46:39.839Z,82.20
2018-04-28T01:47:39.814Z,82.78
2018-04-28T01:48:39.624Z,83.25
2018-04-28T01:49:39.535Z,83.64
2018-04-28T01:50:39.443Z,83.44
2018-04-28T01:51:39.380Z,83.16
2018-04-28T01:52:39.256Z,83.25
2018-04-28T01:53:39.166Z,83.35
2018-04-28T01:54:39.172Z,82.87
2018-04-28T01:55:38.981Z,82.78
2018-04-28T01:56:38.892Z,82.68
2018-04-28T01:57:38.828Z,83.35
2018-04-28T01:58:38.713Z,83.83
2018-04-28T01:59:38.615Z,84.11
2018-04-28T02:00:38.524Z,83.73
2018-04-28T02:01:38.527Z,85.41
2018-04-28T02:02:38.371Z,85.21
2018-04-28T02:03:38.253Z,85.69
2018-04-28T02:04:38.155Z,86.16
2018-04-28T02:05:38.065Z,86.55
2018-04-28T02:06:37.973Z,87.69
2018-04-28T02:07:37.912Z,88.31
2018-04-28T02:08:37.886Z,87.74
2018-04-28T02:09:37.696Z,87.84
2018-04-28T02:10:37.606Z,87.27
2018-04-28T02:11:37.512Z,87.27
2018-04-28T02:12:37.422Z,86.41
2018-04-28T02:13:37.359Z,85.97
2018-04-28T02:14:37.241Z,85.60
2018-04-28T02:15:37.243Z,85.78
2018-04-28T02:16:37.053Z,86.12
2018-04-28T02:17:36.962Z,86.12
2018-04-28T02:18:36.900Z,87.65
2018-04-28T02:19:36.777Z,87.07
2018-04-28T02:20:36.698Z,86.60
2018-04-28T02:21:36.590Z,87.55
2018-04-28T02:22:36.497Z,87.84
2018-04-28T02:23:36.440Z,87.27
2018-04-28T02:24:36.315Z,88.03
2018-04-28T02:25:36.224Z,88.41
2018-04-28T02:26:36.130Z,87.93
2018-04-28T02:27:36.043Z,89.36
2018-04-28T02:28:36.728Z,88.98
2018-04-28T02:29:35.854Z,88.98
2018-04-28T02:30:36.724Z,89.65
2018-04-28T02:31:35.669Z,89.84
2018-04-28T02:32:35.577Z,90.03
2018-04-28T02:33:35.515Z,89.46
2018-04-28T02:34:35.392Z,89.75
2018-04-28T02:35:35.305Z,89.65
2018-04-28T02:36:35.204Z,89.84
2018-04-28T02:37:35.115Z,91.17
2018-04-28T02:38:35.034Z,89.94
2018-04-28T02:39:34.960Z,90.84
2018-04-28T02:40:34.837Z,90.94
2018-04-28T02:41:34.744Z,91.99
2018-04-28T02:42:34.652Z,92.08
2018-04-28T02:43:34.563Z,91.79
2018-04-28T02:44:34.504Z,92.08
2018-04-28T02:45:34.378Z,92.84
2018-04-28T02:46:34.284Z,93.13
2018-04-28T02:47:34.189Z,92.36
2018-04-28T02:48:34.097Z,92.08
2018-04-28T02:49:34.034Z,91.99
2018-04-28T02:50:33.914Z,91.31
2018-04-28T02:51:33.817Z,91.13
2018-04-28T02:52:33.726Z,89.89
2018-04-28T02:53:33.636Z,90.31
2018-04-28T02:54:33.596Z,90.70
2018-04-28T02:55:33.454Z,90.70
2018-04-28T02:56:33.357Z,90.12
2018-04-28T02:57:33.266Z,90.03
2018-04-28T02:58:33.170Z,88.70
2018-04-28T02:59:33.078Z,88.31
2018-04-28T03:00:33.026Z,88.03
2018-04-28T03:01:32.894Z,88.31
2018-04-28T03:02:32.803Z,87.55
2018-04-28T03:03:32.706Z,87.84
2018-04-28T03:04:32.611Z,86.69
2018-04-28T03:05:32.549Z,86.98
2018-04-28T03:06:32.426Z,86.83
2018-04-28T03:07:32.334Z,88.03
2018-04-28T03:08:32.239Z,88.22
2018-04-28T03:09:32.149Z,88.03
2018-04-28T03:10:32.115Z,87.84
2018-04-28T03:11:31.967Z,87.65
2018-04-28T03:12:31.876Z,88.22
2018-04-28T03:13:31.784Z,87.74
2018-04-28T03:14:31.688Z,88.22
2018-04-28T03:15:31.645Z,88.60
2018-04-28T03:16:31.502Z,88.60
2018-04-28T03:17:31.408Z,88.51
2018-04-28T03:18:31.317Z,89.75
2018-04-28T03:19:31.226Z,89.94
2018-04-28T03:20:31.132Z,89.55
2018-04-28T03:21:31.071Z,89.84
2018-04-28T03:22:30.952Z,90.36
2018-04-28T03:23:30.856Z,89.94
2018-04-28T03:24:30.765Z,91.08
2018-04-28T03:25:30.671Z,90.79
2018-04-28T03:26:30.610Z,91.17
2018-04-28T03:27:30.486Z,88.70
2018-04-28T03:28:30.394Z,88.98
2018-04-28T03:29:30.304Z,88.89
2018-04-28T03:30:30.209Z,87.36
2018-04-28T03:31:30.176Z,86.83
2018-04-28T03:32:30.025Z,86.45
2018-04-28T03:33:29.935Z,85.97
2018-04-28T03:34:29.839Z,85.21
2018-04-28T03:35:29.747Z,85.12
2018-04-28T03:36:29.691Z,85.12
2018-04-28T03:37:29.571Z,84.74
2018-04-28T03:38:29.470Z,83.88
2018-04-28T03:39:29.376Z,84.07
2018-04-28T03:40:29.285Z,83.50
2018-04-28T03:41:29.201Z,83.25
2018-04-28T03:42:29.148Z,82.59
2018-04-28T03:43:29.009Z,82.78
2018-04-28T03:44:28.916Z,82.40
2018-04-28T03:45:28.919Z,82.49
2018-04-28T03:46:28.731Z,82.11
2018-04-28T03:47:28.638Z,82.59
2018-04-28T03:48:28.577Z,82.11
2018-04-28T03:49:28.454Z,82.49
2018-04-28T03:50:28.359Z,82.68
2018-04-28T03:51:28.264Z,82.97
2018-04-28T03:52:28.283Z,82.87
2018-04-28T03:53:28.194Z,83.50
2018-04-28T03:54:27.992Z,83.31
2018-04-28T03:55:27.897Z,82.78
2018-04-28T03:56:27.805Z,82.83
2018-04-28T03:57:27.714Z,82.73
2018-04-28T03:58:27.655Z,83.16
2018-04-28T03:59:27.624Z,83.35
2018-04-28T04:00:27.437Z,83.50
2018-04-28T04:01:27.353Z,83.88
2018-04-28T04:02:27.255Z,83.40
2018-04-28T04:03:27.193Z,83.59
2018-04-28T04:04:27.068Z,83.21
2018-04-28T04:05:26.977Z,83.31
2018-04-28T04:06:26.981Z,84.07
2018-04-28T04:07:26.794Z,83.31
2018-04-28T04:08:26.700Z,84.55
2018-04-28T04:09:26.637Z,84.16
2018-04-28T04:10:26.516Z,84.45
2018-04-28T04:11:26.423Z,84.64
2018-04-28T04:12:26.330Z,84.83
2018-04-28T04:13:26.338Z,84.74
2018-04-28T04:14:26.178Z,84.45
2018-04-28T04:15:26.053Z,84.92
2018-04-28T04:16:25.968Z,84.64
2018-04-28T04:17:25.871Z,84.83
2018-04-28T04:18:25.776Z,85.21
2018-04-28T04:19:25.683Z,85.21
2018-04-28T04:20:25.717Z,85.31
2018-04-28T04:21:25.498Z,85.31
2018-04-28T04:22:25.407Z,84.74
2018-04-28T04:23:25.315Z,85.21
2018-04-28T04:24:25.220Z,85.88
2018-04-28T04:25:25.163Z,85.12
2018-04-28T04:26:25.077Z,85.21
2018-04-28T04:27:24.943Z,85.78
2018-04-28T04:28:24.853Z,85.60
2018-04-28T04:29:24.760Z,85.02
2018-04-28T04:30:24.700Z,85.41
2018-04-28T04:31:24.577Z,85.69
2018-04-28T04:32:24.486Z,85.60
2018-04-28T04:33:24.390Z,85.88
2018-04-28T04:34:24.301Z,85.41
2018-04-28T04:35:24.208Z,85.60
2018-04-28T04:36:24.146Z,86.45
2018-04-28T04:37:24.023Z,85.50
2018-04-28T04:38:23.931Z,86.07
2018-04-28T04:39:23.839Z,86.45
2018-04-28T04:40:23.752Z,86.45
2018-04-28T04:41:23.687Z,86.65
2018-04-28T04:42:23.664Z,87.02
2018-04-28T04:43:23.473Z,86.93
2018-04-28T04:44:23.377Z,86.83
2018-04-28T04:45:23.286Z,86.74
2018-04-28T04:46:23.224Z,87.40
2018-04-28T04:47:23.103Z,87.02
2018-04-28T04:48:23.011Z,86.36
2018-04-28T04:49:23.017Z,86.26
2018-04-28T04:50:22.829Z,86.45
2018-04-28T04:51:22.788Z,86.74
2018-04-28T04:52:22.645Z,86.26
2018-04-28T04:53:22.563Z,87.12
2018-04-28T04:54:22.462Z,86.26
2018-04-28T04:55:22.367Z,85.97
2018-04-28T04:56:22.376Z,86.26
2018-04-28T04:57:22.217Z,86.26
2018-04-28T04:58:22.097Z,85.78
2018-04-28T04:59:22.004Z,85.54
2018-04-28T05:00:21.911Z,85.54
2018-04-28T05:01:21.823Z,85.35
2018-04-28T05:02:21.729Z,85.73
2018-04-28T05:03:21.754Z,85.45
2018-04-28T05:04:21.545Z,86.40
2018-04-28T05:05:21.455Z,85.25
2018-04-28T05:06:21.361Z,85.54
2018-04-28T05:07:21.269Z,85.73
2018-04-28T05:08:21.212Z,85.35
2018-04-28T05:09:21.091Z,85.54
2018-04-28T05:10:20.997Z,85.06
2018-04-28T05:11:20.903Z,85.16
2018-04-28T05:12:20.812Z,85.25
2018-04-28T05:13:20.755Z,85.35
2018-04-28T05:14:20.640Z,85.35
2018-04-28T05:15:20.538Z,85.35
2018-04-28T05:16:20.445Z,85.06
2018-04-28T05:17:20.357Z,85.45
2018-04-28T05:18:20.317Z,85.25
2018-04-28T05:19:20.174Z,84.72
2018-04-28T05:20:20.081Z,84.34
2018-04-28T05:21:20.011Z,83.58
2018-04-28T05:22:19.900Z,83.96
2018-04-28T05:23:19.828Z,84.16
2018-04-28T05:24:19.751Z,82.82
2018-04-28T05:25:19.626Z,82.34
2018-04-28T05:26:19.534Z,82.82
2018-04-28T05:27:19.445Z,82.82
2018-04-28T05:28:19.356Z,82.43
2018-04-28T05:29:19.293Z,82.00
2018-04-28T05:30:19.174Z,81.43
2018-04-28T05:31:19.080Z,82.38
2018-04-28T05:32:18.989Z,81.81
2018-04-28T05:33:18.900Z,81.43
2018-04-28T05:34:18.819Z,81.33
2018-04-28T05:35:18.749Z,79.71
2018-04-28T05:36:18.627Z,80.95
2018-04-28T05:37:18.545Z,80.76
2018-04-28T05:38:18.446Z,80.85
2018-04-28T05:39:18.355Z,79.99
2018-04-28T05:40:18.309Z,79.43
2018-04-28T05:41:18.176Z,79.99
2018-04-28T05:42:18.086Z,80.47
2018-04-28T05:43:17.993Z,79.99
2018-04-28T05:44:17.904Z,79.61
2018-04-28T05:45:17.814Z,78.60
2018-04-28T05:46:17.754Z,79.17
2018-04-28T05:47:17.631Z,78.60
2018-04-28T05:48:17.626Z,79.56
2018-04-28T05:49:17.453Z,79.36
2018-04-28T05:50:17.364Z,79.27
2018-04-28T05:51:17.304Z,78.31
2018-04-28T05:52:17.183Z,78.31
2018-04-28T05:53:17.096Z,78.79
2018-04-28T05:54:17.007Z,78.70
2018-04-28T05:55:16.923Z,78.79
2018-04-28T05:56:16.825Z,78.13
2018-04-28T05:57:16.764Z,77.45
2018-04-28T05:58:16.646Z,76.73
2018-04-28T05:59:16.554Z,77.69
2018-04-28T06:00:16.470Z,77.50
2018-04-28T06:01:16.374Z,76.73
2018-04-28T06:02:16.321Z,76.88
2018-04-28T06:03:16.194Z,76.73
2018-04-28T06:04:16.108Z,77.40
2018-04-28T06:05:16.016Z,77.78
2018-04-28T06:06:15.929Z,77.21
2018-04-28T06:07:15.867Z,77.40
2018-04-28T06:08:15.748Z,77.40
2018-04-28T06:09:15.656Z,77.21
2018-04-28T06:10:15.570Z,78.26
2018-04-28T06:11:15.478Z,78.13
2018-04-28T06:12:15.421Z,77.74
2018-04-28T06:13:15.305Z,76.69
2018-04-28T06:14:15.209Z,77.26
2018-04-28T06:15:15.120Z,77.11
2018-04-28T06:16:15.029Z,77.30
2018-04-28T06:17:14.976Z,77.40
2018-04-28T06:18:14.853Z,77.69
2018-04-28T06:19:14.761Z,77.11
2018-04-28T06:20:14.732Z,76.54
2018-04-28T06:21:14.584Z,76.92
2018-04-28T06:22:14.498Z,77.21
2018-04-28T06:23:14.438Z,76.82
2018-04-28T06:24:14.316Z,76.92
2018-04-28T06:25:14.229Z,77.11
2018-04-28T06:26:14.137Z,76.73
2018-04-28T06:27:14.047Z,76.64
2018-04-28T06:28:13.989Z,75.78
2018-04-28T06:29:13.897Z,75.01
2018-04-28T06:30:13.782Z,75.49
2018-04-28T06:31:13.692Z,74.66
2018-04-28T06:32:13.603Z,74.48
2018-04-28T06:33:13.651Z,74.95
2018-04-28T06:34:13.424Z,74.57
2018-04-28T06:35:13.335Z,74.48
2018-04-28T06:36:13.248Z,74.38
2018-04-28T06:37:13.158Z,74.66
2018-04-28T06:38:13.117Z,73.99
2018-04-28T06:39:12.977Z,74.38
2018-04-28T06:40:12.993Z,74.61
2018-04-28T06:41:12.825Z,74.04
2018-04-28T06:42:12.714Z,73.36
2018-04-28T06:43:12.663Z,73.46
2018-04-28T06:44:12.539Z,74.04
2018-04-28T06:45:12.444Z,74.41
2018-04-28T06:46:12.357Z,74.70
2018-04-28T06:47:12.365Z,72.88
2018-04-28T06:48:12.181Z,72.22
2018-04-28T06:49:12.124Z,72.79
2018-04-28T06:50:12.004Z,72.92
2018-04-28T06:51:11.915Z,72.34
2018-04-28T06:52:11.827Z,74.45
2018-04-28T06:53:11.740Z,73.11
2018-04-28T06:54:11.777Z,72.77
2018-04-28T06:55:11.562Z,70.66
2018-04-28T06:56:11.476Z,71.81
2018-04-28T06:57:11.387Z,71.71
2018-04-28T06:58:11.299Z,69.86
2018-04-28T06:59:11.257Z,70.43
2018-04-28T07:00:11.120Z,71.30
2018-04-28T07:01:11.138Z,70.91
2018-04-28T07:02:10.946Z,71.23
2018-04-28T07:03:10.860Z,70.56
2018-04-28T07:04:10.801Z,70.85
2018-04-28T07:05:10.684Z,70.76
2018-04-28T07:06:10.595Z,69.70
2018-04-28T07:07:10.507Z,69.80
2018-04-28T07:08:10.519Z,69.80
2018-04-28T07:09:10.335Z,70.37
2018-04-28T07:10:10.280Z,69.23
2018-04-28T07:11:10.159Z,68.74
2018-04-28T07:12:10.079Z,69.32
2018-04-28T07:13:09.985Z,69.45
2018-04-28T07:14:09.899Z,68.81
2018-04-28T07:15:09.943Z,67.72
2018-04-28T07:16:09.725Z,67.28
2018-04-28T07:17:09.636Z,66.32
2018-04-28T07:18:09.554Z,66.16
2018-04-28T07:19:09.465Z,66.64
2018-04-28T07:20:09.439Z,64.85
2018-04-28T07:21:09.373Z,64.09
2018-04-28T07:22:09.300Z,63.79
2018-04-28T07:23:09.115Z,62.36
2018-04-28T07:24:09.032Z,61.88
2018-04-28T07:25:08.978Z,61.11
2018-04-28T07:26:08.860Z,61.75
2018-04-28T07:27:08.776Z,62.65
2018-04-28T07:28:08.686Z,63.22
2018-04-28T07:29:08.699Z,63.51
2018-04-28T07:30:08.553Z,63.89
2018-04-28T07:31:08.436Z,64.28
2018-04-28T07:32:08.343Z,62.01
2018-04-28T07:33:08.260Z,61.55
2018-04-28T07:34:08.178Z,61.36
2018-04-28T07:35:08.119Z,61.40
2018-04-28T07:36:08.102Z,61.30
2018-04-28T07:37:07.989Z,58.70
2018-04-28T07:38:07.832Z,57.75
2018-04-28T07:39:07.752Z,58.89
2018-04-28T07:40:07.694Z,60.05
2018-04-28T07:41:07.583Z,59.86
2018-04-28T07:42:07.493Z,58.61
2018-04-28T07:43:07.528Z,59.28
2018-04-28T07:44:07.325Z,59.73
2018-04-28T07:45:07.275Z,60.47
2018-04-28T07:46:07.159Z,60.78
2018-04-28T07:47:07.072Z,59.64
2018-04-28T07:48:06.990Z,59.19
2018-04-28T07:49:06.905Z,58.58
2018-04-28T07:50:06.948Z,57.93
2018-04-28T07:51:06.735Z,58.42
2018-04-28T07:52:06.658Z,58.89
2018-04-28T07:53:06.571Z,59.79
2018-04-28T07:54:06.488Z,59.19
2018-04-28T07:55:06.433Z,59.50
2018-04-28T07:56:06.443Z,59.12
2018-04-28T07:57:06.237Z,58.83
2018-04-28T07:58:06.149Z,57.13
2018-04-28T07:59:06.065Z,55.43
2018-04-28T08:00:06.012Z,54.46
2018-04-28T08:01:05.900Z,54.65
2018-04-28T08:02:05.817Z,54.56
2018-04-28T08:03:05.730Z,54.27
2018-04-28T08:04:05.650Z,55.33
2018-04-28T08:05:05.610Z,54.39
2018-04-28T08:06:05.483Z,53.78
2018-04-28T08:07:05.455Z,57.25
2018-04-28T08:08:05.317Z,55.33
2018-04-28T08:09:05.235Z,55.13
2018-04-28T08:10:05.157Z,54.10
2018-04-28T08:11:05.104Z,53.33
2018-04-28T08:12:04.989Z,52.78
2018-04-28T08:13:04.904Z,53.07
2018-04-28T08:14:04.823Z,50.83
2018-04-28T08:15:04.745Z,52.11
2018-04-28T08:16:04.689Z,51.31
2018-04-28T08:17:04.577Z,51.82
2018-04-28T08:18:04.493Z,52.42
2018-04-28T08:19:04.412Z,51.84
2018-04-28T08:20:04.333Z,52.04
2018-04-28T08:21:04.277Z,53.36
2018-04-28T08:22:04.168Z,53.36
2018-04-28T08:23:04.084Z,51.43
2018-04-28T08:24:04.002Z,50.66
2018-04-28T08:25:03.924Z,52.47
2018-04-28T08:26:03.875Z,51.53
2018-04-28T08:27:03.758Z,50.27
2018-04-28T08:28:03.677Z,51.89
2018-04-28T08:29:03.600Z,54.20
2018-04-28T08:30:03.514Z,52.85
2018-04-28T08:31:03.461Z,52.01
2018-04-28T08:32:03.354Z,51.62
2018-04-28T08:33:03.270Z,51.84
2018-04-28T08:34:03.189Z,50.27
2018-04-28T08:35:03.106Z,50.40
2018-04-28T08:36:03.058Z,49.82
2018-04-28T08:37:02.982Z,49.51
2018-04-28T08:38:02.867Z,48.35
2018-04-28T08:39:02.781Z,51.43
2018-04-28T08:40:02.703Z,52.20
2018-04-28T08:41:02.653Z,52.12
2018-04-28T08:42:02.541Z,51.38
2018-04-28T08:43:02.455Z,51.89
2018-04-28T08:44:02.379Z,51.02
2018-04-28T08:45:02.294Z,52.13
2018-04-28T08:46:02.250Z,51.26
2018-04-28T08:47:02.133Z,50.74
2018-04-28T08:48:02.064Z,50.06
2018-04-28T08:49:01.975Z,48.13
2018-04-28T08:50:01.891Z,48.13
2018-04-28T08:51:01.926Z,48.88
2018-04-28T08:52:01.731Z,49.15
2018-04-28T08:53:01.653Z,49.82
2018-04-28T08:54:01.570Z,51.46
2018-04-28T08:55:01.491Z,49.94
2018-04-28T08:56:01.439Z,50.59
2018-04-28T08:57:01.326Z,50.62
2018-04-28T08:58:01.251Z,49.55
2018-04-28T08:59:01.170Z,49.00
2018-04-28T09:00:01.091Z,48.33
2018-04-28T09:01:01.036Z,49.82
2018-04-28T09:02:00.926Z,48.95
2018-04-28T09:03:00.844Z,49.10
2018-04-28T09:04:00.768Z,49.77
2018-04-28T09:05:00.685Z,51.12
2018-04-28T09:06:00.605Z,51.65
2018-04-28T09:07:00.563Z,49.73
2018-04-28T09:08:00.443Z,48.69
2018-04-28T09:09:00.361Z,48.95
2018-04-28T09:10:00.285Z,48.52
2018-04-28T09:11:00.204Z,47.34
2018-04-28T09:12:00.155Z,47.39
2018-04-28T09:13:00.155Z,48.97
2018-04-28T09:13:59.963Z,51.45
2018-04-28T09:14:59.929Z,52.47
2018-04-28T09:15:59.800Z,51.34
2018-04-28T09:16:59.754Z,50.40
2018-04-28T09:17:59.641Z,51.62
2018-04-28T09:18:59.558Z,52.42
2018-04-28T09:19:59.573Z,50.26
2018-04-28T09:20:59.398Z,48.83
2018-04-28T09:21:59.356Z,48.30
2018-04-28T09:22:59.238Z,47.84
2018-04-28T09:23:59.156Z,43.59
2018-04-28T09:24:59.077Z,41.00
2018-04-28T09:25:58.999Z,42.24
2018-04-28T09:26:59.047Z,44.53
2018-04-28T09:27:58.836Z,45.48
2018-04-28T09:28:58.758Z,48.33
2018-04-28T09:29:58.679Z,44.59
2018-04-28T09:30:58.601Z,44.97
2018-04-28T09:31:58.548Z,43.26
2018-04-28T09:32:58.490Z,44.22
2018-04-28T09:33:58.454Z,43.64
2018-04-28T09:34:58.284Z,42.60
2018-04-28T09:35:58.200Z,42.58
2018-04-28T09:36:58.149Z,42.68
2018-04-28T09:37:58.048Z,44.45
2018-04-28T09:38:57.961Z,45.34
2018-04-28T09:39:57.972Z,44.18
2018-04-28T09:40:57.897Z,44.49
2018-04-28T09:41:57.753Z,44.60
2018-04-28T09:42:57.642Z,43.18
2018-04-28T09:43:57.561Z,44.15
2018-04-28T09:44:57.484Z,42.91
2018-04-28T09:45:57.405Z,42.43
2018-04-28T09:46:57.353Z,42.43
2018-04-28T09:47:57.340Z,43.66
2018-04-28T09:48:57.165Z,45.04
2018-04-28T09:49:57.088Z,44.36
2018-04-28T09:50:57.006Z,43.64
2018-04-28T09:51:56.928Z,45.81
2018-04-28T09:52:56.879Z,44.05
2018-04-28T09:53:56.771Z,45.62
2018-04-28T09:54:56.792Z,43.78
2018-04-28T09:55:56.611Z,44.94
2018-04-28T09:56:56.537Z,43.80
2018-04-28T09:57:56.487Z,44.31
2018-04-28T09:58:56.435Z,44.09
2018-04-28T09:59:56.295Z,43.61
2018-04-28T10:00:56.215Z,43.98
2018-04-28T10:01:56.275Z,45.31
2018-04-28T10:02:56.089Z,44.80
2018-04-28T10:03:55.981Z,44.34
2018-04-28T10:04:55.901Z,44.24
2018-04-28T10:05:55.888Z,43.59
2018-04-28T10:06:55.743Z,43.35
2018-04-28T10:07:55.697Z,47.00
2018-04-28T10:08:55.682Z,45.92
2018-04-28T10:09:55.511Z,48.79
2018-04-28T10:10:55.427Z,47.67
2018-04-28T10:11:55.356Z,44.32
2018-04-28T10:12:55.336Z,43.93
2018-04-28T10:13:55.190Z,43.78
2018-04-28T10:14:55.110Z,43.78
2018-04-28T10:15:55.032Z,44.46
2018-04-28T10:16:54.952Z,46.32
2018-04-28T10:17:54.903Z,42.88
2018-04-28T10:18:54.795Z,40.36
2018-04-28T10:19:54.716Z,39.32
2018-04-28T10:20:54.636Z,39.80
2018-04-28T10:21:54.559Z,39.78
2018-04-28T10:22:54.509Z,41.83
2018-04-28T10:23:54.399Z,44.26
2018-04-28T10:24:54.321Z,46.83
2018-04-28T10:25:54.240Z,47.67
2018-04-28T10:26:54.162Z,47.63
2018-04-28T10:27:54.115Z,46.71
2018-04-28T10:28:54.007Z,47.63
2018-04-28T10:29:53.927Z,48.21
2018-04-28T10:30:54.163Z,48.81
2018-04-28T10:31:53.770Z,50.54
2018-04-28T10:32:53.726Z,49.10
2018-04-28T10:33:53.612Z,50.04
2018-04-28T10:34:53.530Z,50.93
2018-04-28T10:35:53.458Z,51.82
2018-04-28T10:36:53.374Z,52.52
2018-04-28T10:37:53.425Z,52.73
2018-04-28T10:38:53.216Z,48.90
2018-04-28T10:39:53.137Z,47.58
2018-04-28T10:40:53.058Z,48.23
2018-04-28T10:41:52.977Z,50.32
2018-04-28T10:42:52.934Z,50.71
2018-04-28T10:43:52.913Z,49.94
2018-04-28T10:44:52.739Z,50.42
2018-04-28T10:45:52.658Z,50.47
2018-04-28T10:46:52.577Z,52.25
2018-04-28T10:47:52.532Z,55.93
2018-04-28T10:48:52.419Z,54.08
2018-04-28T10:49:52.338Z,54.30
2018-04-28T10:50:52.257Z,52.40
2018-04-28T10:51:52.176Z,51.98
2018-04-28T10:52:52.098Z,53.47
2018-04-28T10:53:52.138Z,54.91
2018-04-28T10:54:51.934Z,55.30
2018-04-28T10:55:51.852Z,55.98
2018-04-28T10:56:51.772Z,55.40
2018-04-28T10:57:51.692Z,55.98
2018-04-28T10:58:51.641Z,57.25
2018-04-28T10:59:51.536Z,56.60
2018-04-28T11:00:51.448Z,56.03
2018-04-28T11:01:51.366Z,53.33
2018-04-28T11:02:51.284Z,53.31
2018-04-28T11:03:51.232Z,53.65
2018-04-28T11:04:51.117Z,53.91
2018-04-28T11:05:51.036Z,53.81
2018-04-28T11:06:50.958Z,53.19
2018-04-28T11:07:50.872Z,55.13
2018-04-28T11:08:50.821Z,55.11
2018-04-28T11:09:50.712Z,55.37
2018-04-28T11:10:50.626Z,56.59
2018-04-28T11:11:50.545Z,56.91
2018-04-28T11:12:50.467Z,56.04
2018-04-28T11:13:50.415Z,57.48
2018-04-28T11:14:50.299Z,58.35
2018-04-28T11:15:50.216Z,57.60
2018-04-28T11:16:50.134Z,56.07
2018-04-28T11:17:50.051Z,55.98
2018-04-28T11:18:50.000Z,56.65
2018-04-28T11:19:49.979Z,56.84
2018-04-28T11:20:49.801Z,56.45
2018-04-28T11:21:49.719Z,55.40
2018-04-28T11:22:49.633Z,56.30
2018-04-28T11:23:49.582Z,57.14
2018-04-28T11:24:49.468Z,58.20
2018-04-28T11:25:49.425Z,58.39
2018-04-28T11:26:49.301Z,58.96
2018-04-28T11:27:49.220Z,59.06
2018-04-28T11:28:49.164Z,60.40
2018-04-28T11:29:49.053Z,58.77
2018-04-28T11:30:48.964Z,59.34
2018-04-28T11:31:48.882Z,58.80
2018-04-28T11:32:48.872Z,58.32
2018-04-28T11:33:48.744Z,58.03
2018-04-28T11:34:48.627Z,56.88
2018-04-28T11:35:48.542Z,56.62
2018-04-28T11:36:48.465Z,56.37
2018-04-28T11:37:48.378Z,58.67
2018-04-28T11:38:48.327Z,59.73
2018-04-28T11:39:48.205Z,59.64
2018-04-28T11:40:48.119Z,60.60
2018-04-28T11:41:48.038Z,60.11
2018-04-28T11:42:47.950Z,59.09
2018-04-28T11:43:47.898Z,59.09
2018-04-28T11:44:47.783Z,58.99
2018-04-28T11:45:47.699Z,58.32
2018-04-28T11:46:47.617Z,59.09
2018-04-28T11:47:47.527Z,58.80
2018-04-28T11:48:47.475Z,58.42
2018-04-28T11:49:47.361Z,57.93
2018-04-28T11:50:47.276Z,58.61
2018-04-28T11:51:47.186Z,56.88
2018-04-28T11:52:47.105Z,57.58
2018-04-28T11:53:47.053Z,57.00
2018-04-28T11:54:46.934Z,55.85
2018-04-28T11:55:46.849Z,55.94
2018-04-28T11:56:46.764Z,56.62
2018-04-28T11:57:46.678Z,56.23
2018-04-28T11:58:46.596Z,57.13
2018-04-28T11:59:46.541Z,55.40
2018-04-28T12:00:46.521Z,56.45
2018-04-28T12:01:46.338Z,55.01
2018-04-28T12:02:46.257Z,54.56
2018-04-28T12:03:46.172Z,54.08
2018-04-28T12:04:46.118Z,53.31
2018-04-28T12:05:46.035Z,54.75
2018-04-28T12:06:45.915Z,54.68
2018-04-28T12:07:45.831Z,53.43
2018-04-28T12:08:45.748Z,51.70
2018-04-28T12:09:45.693Z,51.76
2018-04-28T12:10:45.578Z,51.76
2018-04-28T12:11:45.496Z,51.29
2018-04-28T12:12:45.411Z,51.74
2018-04-28T12:13:45.325Z,54.41
2018-04-28T12:14:45.369Z,56.43
2018-04-28T12:15:45.158Z,54.63
2018-04-28T12:16:45.079Z,53.47
2018-04-28T12:17:44.989Z,53.50
2018-04-28T12:18:44.904Z,53.50
2018-04-28T12:19:44.852Z,54.94
2018-04-28T12:20:44.737Z,54.27
2018-04-28T12:21:44.751Z,53.50
2018-04-28T12:22:44.571Z,52.51
2018-04-28T12:23:44.486Z,54.05
2018-04-28T12:24:44.432Z,54.17
2018-04-28T12:25:44.326Z,53.33
2018-04-28T12:26:44.233Z,52.37
2018-04-28T12:27:44.149Z,51.50
2018-04-28T12:28:44.167Z,51.79
2018-04-28T12:29:44.071Z,51.79
2018-04-28T12:30:43.910Z,51.67
2018-04-28T12:31:43.817Z,51.09
2018-04-28T12:32:43.732Z,51.86
2018-04-28T12:33:43.648Z,51.76
2018-04-28T12:34:43.596Z,52.18
2018-04-28T12:35:43.574Z,51.50
2018-04-28T12:36:43.398Z,53.36
2018-04-28T12:37:43.314Z,51.21
2018-04-28T12:38:43.227Z,52.18
2018-04-28T12:39:43.183Z,51.31
2018-04-28T12:40:43.077Z,50.35
2018-04-28T12:41:42.979Z,50.15
2018-04-28T12:42:42.992Z,50.27
2018-04-28T12:43:42.811Z,51.92
2018-04-28T12:44:42.762Z,50.35
2018-04-28T12:45:42.645Z,52.40
2018-04-28T12:46:42.561Z,53.19
2018-04-28T12:47:42.478Z,52.42
2018-04-28T12:48:42.395Z,52.52
2018-04-28T12:49:42.445Z,52.33
2018-04-28T12:50:42.247Z,50.11
2018-04-28T12:51:42.144Z,49.73